Time;durP1;ratioP1;P1;durP2;ratioP2;P2;SDS_P1;SDS_P2;PMS_P1;PMS_P2;Temp;Humidity;BMP_temperature;BMP_pressure;BME280_temperature;BME280_humidity;BME280_pressure;Samples;Min_cycle;Max_cycle;Signal;HPM_P1;HPM_P2
2023/09/03 00:00:52;;;;;;;0.10;0.10;;;;;;;;;;5076921;28;20036;-92
2023/09/03 00:03:18;;;;;;;0.10;0.10;;;;;;;;;;5060446;28;20087;-91
2023/09/03 00:05:50;;;;;;;0.10;0.10;;;;;;;;;;5059833;28;20051;-91
2023/09/03 00:08:16;;;;;;;;;;;;;;;;;;5060019;28;20055;-90
2023/09/03 00:10:42;;;;;;;0.10;0.10;;;;;;;;;;5093368;28;19998;-90
2023/09/03 00:13:08;;;;;;;0.10;0.10;;;;;;;;;;5059548;28;20052;-90
2023/09/03 00:15:39;;;;;;;0.10;0.10;;;;;;;;;;5076307;28;20036;-90
2023/09/03 00:18:05;;;;;;;0.10;0.10;;;;;;;;;;5060602;28;20039;-91
2023/09/03 00:20:31;;;;;;;0.10;0.10;;;;;;;;;;5076454;28;20040;-92
2023/09/03 00:22:57;;;;;;;0.10;0.10;;;;;;;;;;5060180;28;20039;-93
2023/09/03 00:25:23;;;;;;;0.10;0.10;;;;;;;;;;5076413;28;20055;-92
2023/09/03 00:27:49;;;;;;;0.10;0.10;;;;;;;;;;5076474;28;20050;-92
2023/09/03 00:30:15;;;;;;;0.10;0.10;;;;;;;;;;5076087;28;20040;-92
2023/09/03 00:32:41;;;;;;;0.10;0.10;;;;;;;;;;5076048;28;20043;-92
2023/09/03 00:35:07;;;;;;;0.10;0.10;;;;;;;;;;5059451;28;20089;-92
2023/09/03 00:37:33;;;;;;;0.10;0.10;;;;;;;;;;5076537;28;20036;-91
2023/09/03 00:39:59;;;;;;;0.10;0.10;;;;;;;;;;5059876;28;20032;-92
2023/09/03 00:42:26;;;;;;;0.10;0.10;;;;;;;;;;5059922;28;20040;-93
2023/09/03 00:44:52;;;;;;;0.10;0.10;;;;;;;;;;5059514;28;20051;-94
2023/09/03 00:47:18;;;;;;;0.10;0.10;;;;;;;;;;5060234;28;20040;-93
2023/09/03 00:49:44;;;;;;;0.10;0.10;;;;;;;;;;5076524;28;20122;-93
2023/09/03 00:52:12;;;;;;;0.10;0.10;;;;;;;;;;5076166;28;20083;-92
2023/09/03 00:54:38;;;;;;;0.10;0.10;;;;;;;;;;5059637;28;20040;-96
2023/09/03 00:57:04;;;;;;;0.10;0.10;;;;;;;;;;5059332;28;20036;-94
2023/09/03 00:59:30;;;;;;;0.10;0.10;;;;;;;;;;5076067;28;20044;-93
2023/09/03 01:01:56;;;;;;;0.10;0.10;;;;;;;;;;5059751;28;20475;-93
2023/09/03 01:04:22;;;;;;;0.10;0.10;;;;;;;;;;5076566;28;20048;-93
2023/09/03 01:06:51;;;;;;;0.10;0.10;;;;;;;;;;5059660;28;20047;-92
2023/09/03 01:09:17;;;;;;;0.10;0.10;;;;;;;;;;5060061;28;20093;-93
2023/09/03 01:12:02;;;;;;;0.10;0.10;;;;;;;;;;5058655;28;20108;-95
2023/09/03 01:14:40;;;;;;;0.10;0.10;;;;;;;;;;5093002;28;20039;-94
2023/09/03 01:17:13;;;;;;;0.10;0.10;;;;;;;;;;5076616;28;20036;-95
2023/09/03 01:19:58;;;;;;;0.10;0.10;;;;;;;;;;5059835;28;20044;-94
2023/09/03 01:22:32;;;;;;;0.10;0.10;;;;;;;;;;5092607;28;20122;-93
2023/09/03 01:25:09;;;;;;;0.10;0.10;;;;;;;;;;5059029;28;20093;-92
2023/09/03 01:27:52;;;;;;;0.10;0.10;;;;;;;;;;5075916;28;20043;-93
2023/09/03 01:30:18;;;;;;;0.10;0.10;;;;;;;;;;5058847;28;20036;-93
2023/09/03 01:32:46;;;;;;;0.10;0.10;;;;;;;;;;5058815;28;20436;-92
2023/09/03 01:35:14;;;;;;;0.10;0.10;;;;;;;;;;5075886;28;20519;-92
2023/09/03 01:37:42;;;;;;;0.10;0.10;;;;;;;;;;5058989;28;20491;-93
2023/09/03 01:40:10;;;;;;;0.10;0.10;;;;;;;;;;5092362;28;20173;-92
2023/09/03 01:42:36;;;;;;;0.10;0.10;;;;;;;;;;5075631;28;20040;-93
2023/09/03 01:45:03;;;;;;;0.10;0.10;;;;;;;;;;5075730;28;20128;-93
2023/09/03 01:47:46;;;;;;;0.10;0.10;;;;;;;;;;5075619;28;20140;-93
2023/09/03 01:50:12;;;;;;;0.10;0.10;;;;;;;;;;5075938;28;20044;-95
2023/09/03 01:52:56;;;;;;;0.10;0.10;;;;;;;;;;5092633;28;20491;-93
2023/09/03 01:55:22;;;;;;;0.10;0.10;;;;;;;;;;5058795;28;20047;-93
2023/09/03 01:57:49;;;;;;;0.10;0.10;;;;;;;;;;5058242;28;20042;-94
2023/09/03 02:00:18;;;;;;;0.15;0.15;;;;;;;;;;5058534;28;20042;-93
2023/09/03 02:02:44;;;;;;;0.10;0.10;;;;;;;;;;5075609;28;20131;-92
2023/09/03 02:05:12;;;;;;;0.10;0.10;;;;;;;;;;5092120;28;20036;-92
2023/09/03 02:07:41;;;;;;;0.10;0.10;;;;;;;;;;5092039;28;20127;-92
2023/09/03 02:10:07;;;;;;;0.10;0.10;;;;;;;;;;5074829;28;20043;-92
2023/09/03 02:12:33;;;;;;;0.10;0.10;;;;;;;;;;5058339;28;20044;-93
2023/09/03 02:14:59;;;;;;;0.10;0.10;;;;;;;;;;5075980;28;20040;-92
2023/09/03 02:17:26;;;;;;;0.10;0.10;;;;;;;;;;5074777;28;20056;-93
2023/09/03 02:19:53;;;;;;;0.10;0.10;;;;;;;;;;5091777;28;20055;-93
2023/09/03 02:22:19;;;;;;;0.08;0.08;;;;;;;;;;5075342;28;20043;-93
2023/09/03 02:24:44;;;;;;;0.10;0.10;;;;;;;;;;5058590;28;20036;-93
2023/09/03 02:27:13;;;;;;;0.10;0.10;;;;;;;;;;5059041;28;20043;-93
2023/09/03 02:29:39;;;;;;;0.10;0.10;;;;;;;;;;5075761;28;20067;-94
2023/09/03 02:32:08;;;;;;;0.10;0.10;;;;;;;;;;5058138;28;20054;-94
2023/09/03 02:34:35;;;;;;;0.10;0.10;;;;;;;;;;5075659;28;20036;-93
2023/09/03 02:37:01;;;;;;;0.10;0.10;;;;;;;;;;5062314;28;20040;-94
2023/09/03 02:39:27;;;;;;;0.10;0.10;;;;;;;;;;5079127;28;20119;-94
2023/09/03 02:41:55;;;;;;;0.10;0.10;;;;;;;;;;5062296;28;20044;-93
2023/09/03 02:44:21;;;;;;;0.10;0.10;;;;;;;;;;5062406;28;20050;-93
2023/09/03 02:46:47;;;;;;;0.10;0.10;;;;;;;;;;5078842;28;20044;-94
2023/09/03 02:49:16;;;;;;;0.10;0.10;;;;;;;;;;5062538;28;20590;-94
2023/09/03 02:51:42;;;;;;;0.10;0.10;;;;;;;;;;5062021;28;20093;-93
2023/09/03 02:54:08;;;;;;;0.10;0.10;;;;;;;;;;5061272;28;20113;-93
2023/09/03 02:56:34;;;;;;;0.13;0.13;;;;;;;;;;5078592;28;20044;-93
2023/09/03 02:59:00;;;;;;;0.10;0.10;;;;;;;;;;5061979;28;20543;-93
2023/09/03 03:01:27;;;;;;;0.10;0.10;;;;;;;;;;5078473;28;20040;-93
2023/09/03 03:03:54;;;;;;;0.10;0.10;;;;;;;;;;5078096;28;20136;-93
2023/09/03 03:06:20;;;;;;;0.10;0.10;;;;;;;;;;5096067;28;20133;-92
2023/09/03 03:08:46;;;;;;;0.17;0.17;;;;;;;;;;5078117;28;20081;-92
2023/09/03 03:11:12;;;;;;;0.10;0.10;;;;;;;;;;5078077;28;20376;-92
2023/09/03 03:13:39;;;;;;;0.10;0.10;;;;;;;;;;5060441;28;20051;-92
2023/09/03 03:16:08;;;;;;;0.10;0.10;;;;;;;;;;5077785;28;20040;-92
2023/09/03 03:18:35;;;;;;;0.10;0.10;;;;;;;;;;5060972;28;20043;-92
2023/09/03 03:21:05;;;;;;;0.10;0.10;;;;;;;;;;5077423;28;20067;-91
2023/09/03 03:23:32;;;;;;;0.10;0.10;;;;;;;;;;5061058;28;20036;-92
2023/09/03 03:25:58;;;;;;;0.10;0.10;;;;;;;;;;5060947;28;20039;-92
2023/09/03 03:28:24;;;;;;;0.10;0.10;;;;;;;;;;5078089;28;20395;-93
2023/09/03 03:30:52;;;;;;;0.10;0.10;;;;;;;;;;5078013;28;20380;-92
2023/09/03 03:33:18;;;;;;;0.10;0.10;;;;;;;;;;5061084;28;20050;-92
2023/09/03 03:35:44;;;;;;;0.10;0.10;;;;;;;;;;5077436;28;20078;-93
2023/09/03 03:38:11;;;;;;;0.10;0.10;;;;;;;;;;5060736;28;20036;-95
2023/09/03 03:40:37;;;;;;;0.10;0.10;;;;;;;;;;5079081;28;20040;-94
2023/09/03 03:43:03;;;;;;;0.20;0.20;;;;;;;;;;5061396;28;20486;-93
2023/09/03 03:45:29;;;;;;;0.10;0.10;;;;;;;;;;5077168;28;20043;-93
2023/09/03 03:47:55;;;;;;;0.10;0.10;;;;;;;;;;5061233;28;20044;-93
2023/09/03 03:50:21;;;;;;;0.10;0.10;;;;;;;;;;5077674;28;20101;-94
2023/09/03 03:52:47;;;;;;;0.22;0.22;;;;;;;;;;5077052;28;20117;-92
2023/09/03 03:55:13;;;;;;;0.10;0.10;;;;;;;;;;5060514;28;20058;-92
2023/09/03 03:57:39;;;;;;;0.10;0.10;;;;;;;;;;5060183;28;20132;-93
2023/09/03 04:00:06;;;;;;;0.10;0.10;;;;;;;;;;5077111;28;20494;-93
2023/09/03 04:02:32;;;;;;;0.10;0.10;;;;;;;;;;5060823;28;20126;-94
2023/09/03 04:04:58;;;;;;;0.10;0.10;;;;;;;;;;5060779;28;20472;-93
2023/09/03 04:07:24;;;;;;;0.10;0.10;;;;;;;;;;5077278;28;20119;-91
2023/09/03 04:09:50;;;;;;;0.10;0.10;;;;;;;;;;5060458;28;20133;-92
2023/09/03 04:12:16;;;;;;;0.10;0.10;;;;;;;;;;5076779;28;20051;-92
2023/09/03 04:14:42;;;;;;;0.10;0.10;;;;;;;;;;5076621;28;20052;-92
2023/09/03 04:17:08;;;;;;;0.10;0.10;;;;;;;;;;5076457;28;20490;-92
2023/09/03 04:19:34;;;;;;;0.10;0.10;;;;;;;;;;5076353;28;20360;-92
2023/09/03 04:22:00;;;;;;;0.10;0.10;;;;;;;;;;5059856;28;20190;-92
2023/09/03 04:24:26;;;;;;;0.10;0.10;;;;;;;;;;5059803;28;20048;-92
2023/09/03 04:26:52;;;;;;;0.10;0.10;;;;;;;;;;5076585;28;20084;-91
2023/09/03 04:29:19;;;;;;;0.10;0.10;;;;;;;;;;5093397;28;20032;-92
2023/09/03 04:31:45;;;;;;;0.10;0.10;;;;;;;;;;5076116;28;20047;-92
2023/09/03 04:34:12;;;;;;;0.10;0.10;;;;;;;;;;5093058;28;20119;-91
2023/09/03 04:36:39;;;;;;;0.10;0.10;;;;;;;;;;5075955;28;20043;-91
2023/09/03 04:39:05;;;;;;;0.10;0.10;;;;;;;;;;5092772;28;20089;-93
2023/09/03 04:41:31;;;;;;;0.10;0.10;;;;;;;;;;5076775;28;20043;-93
2023/09/03 04:44:10;;;;;;;0.10;0.10;;;;;;;;;;5076652;28;20040;-93
2023/09/03 04:46:37;;;;;;;0.10;0.10;;;;;;;;;;5060368;28;20094;-93
2023/09/03 04:49:03;;;;;;;0.10;0.10;;;;;;;;;;5076419;28;20044;-93
2023/09/03 04:51:29;;;;;;;0.10;0.10;;;;;;;;;;5059742;28;20506;-93
2023/09/03 04:53:55;;;;;;;0.10;0.10;;;;;;;;;;5059253;28;20048;-93
2023/09/03 04:56:21;;;;;;;0.10;0.10;;;;;;;;;;5060416;28;20036;-94
2023/09/03 04:58:47;;;;;;;0.10;0.10;;;;;;;;;;5059609;28;20375;-95
2023/09/03 05:01:17;;;;;;;0.10;0.10;;;;;;;;;;5059551;28;20040;-93
2023/09/03 05:03:44;;;;;;;0.10;0.10;;;;;;;;;;5059314;28;20040;-93
2023/09/03 05:06:19;;;;;;;0.10;0.10;;;;;;;;;;5059263;28;20036;-92
2023/09/03 05:08:50;;;;;;;0.10;0.10;;;;;;;;;;5076453;28;20434;-95
2023/09/03 05:11:16;;;;;;;0.10;0.10;;;;;;;;;;5076235;28;20044;-93
2023/09/03 05:13:42;;;;;;;0.10;0.10;;;;;;;;;;5058603;28;20040;-92
2023/09/03 05:16:08;;;;;;;0.10;0.10;;;;;;;;;;5058685;28;20119;-91
2023/09/03 05:18:34;;;;;;;0.10;0.10;;;;;;;;;;5075312;28;20040;-91
2023/09/03 05:21:09;;;;;;;0.10;0.10;;;;;;;;;;5075097;28;20032;-91
2023/09/03 05:23:35;;;;;;;0.10;0.10;;;;;;;;;;5059249;28;20376;-92
2023/09/03 05:26:01;;;;;;;0.10;0.10;;;;;;;;;;5075091;28;20047;-91
2023/09/03 05:28:27;;;;;;;0.10;0.10;;;;;;;;;;5058570;28;20488;-94
2023/09/03 05:30:53;;;;;;;0.10;0.10;;;;;;;;;;5058588;28;20135;-93
2023/09/03 05:33:19;;;;;;;0.10;0.10;;;;;;;;;;5058827;28;20094;-93
2023/09/03 05:35:45;;;;;;;0.10;0.10;;;;;;;;;;5075623;28;20047;-93
2023/09/03 05:38:11;;;;;;;0.10;0.10;;;;;;;;;;5058806;28;20040;-92
2023/09/03 05:40:37;;;;;;;0.10;0.10;;;;;;;;;;5075080;28;20035;-91
2023/09/03 05:43:03;;;;;;;0.10;0.10;;;;;;;;;;5059041;28;20051;-92
2023/09/03 05:45:29;;;;;;;0.10;0.10;;;;;;;;;;5058638;28;20040;-91
2023/09/03 05:47:55;;;;;;;0.10;0.10;;;;;;;;;;5058655;28;20441;-91
2023/09/03 05:50:21;;;;;;;0.03;0.03;;;;;;;;;;5058413;28;20086;-90
2023/09/03 05:52:47;;;;;;;0.10;0.10;;;;;;;;;;5091476;28;20449;-92
2023/09/03 05:55:13;;;;;;;0.10;0.10;;;;;;;;;;5057967;28;20109;-91
2023/09/03 05:57:40;;;;;;;0.10;0.10;;;;;;;;;;5074825;28;20235;-91
2023/09/03 06:00:08;;;;;;;0.10;0.10;;;;;;;;;;5091517;28;20044;-91
2023/09/03 06:02:34;;;;;;;0.10;0.10;;;;;;;;;;5091372;28;20064;-91
2023/09/03 06:05:00;;;;;;;0.10;0.10;;;;;;;;;;5074559;28;20036;-91
2023/09/03 06:07:26;;;;;;;0.10;0.10;;;;;;;;;;5057689;28;20039;-91
2023/09/03 06:09:52;;;;;;;0.10;0.10;;;;;;;;;;5076732;28;20449;-91
2023/09/03 06:12:18;;;;;;;0.10;0.10;;;;;;;;;;5078822;28;20047;-91
2023/09/03 06:14:44;;;;;;;0.10;0.10;;;;;;;;;;5062494;28;20032;-92
2023/09/03 06:17:10;;;;;;;0.10;0.10;;;;;;;;;;5062657;28;20051;-92
2023/09/03 06:19:36;;;;;;;0.10;0.10;;;;;;;;;;5061943;28;20032;-91
2023/09/03 06:22:02;;;;;;;0.10;0.10;;;;;;;;;;5061815;28;20040;-91
2023/09/03 06:24:28;;;;;;;0.10;0.10;;;;;;;;;;5095109;28;20047;-92
2023/09/03 06:26:54;;;;;;;0.10;0.10;;;;;;;;;;5062950;28;20474;-95
2023/09/03 06:29:20;;;;;;;0.10;0.10;;;;;;;;;;5062064;28;20046;-93
2023/09/03 06:31:46;;;;;;;0.10;0.10;;;;;;;;;;5061907;28;20123;-93
2023/09/03 06:34:12;;;;;;;0.10;0.10;;;;;;;;;;5061694;28;20040;-94
2023/09/03 06:36:38;;;;;;;0.10;0.10;;;;;;;;;;5078317;28;20039;-93
2023/09/03 06:39:05;;;;;;;0.10;0.10;;;;;;;;;;5078590;28;20036;-94
2023/09/03 06:41:31;;;;;;;0.10;0.10;;;;;;;;;;5078561;28;20123;-95
2023/09/03 06:46:43;;;;;;;0.10;0.10;;;;;;;;;;5922987;22;20088;-96
2023/09/03 06:49:10;;;;;;;0.10;0.10;;;;;;;;;;5003196;28;20143;-95
2023/09/03 07:07:16;;;;;;;0.10;0.10;;;;;;;;;;5112172;22;20088;-96
2023/09/03 07:09:45;;;;;;;0.10;0.10;;;;;;;;;;5021205;28;20045;-95
2023/09/03 07:12:12;;;;;;;0.10;0.10;;;;;;;;;;5021722;28;20049;-96
2023/09/03 07:14:38;;;;;;;0.10;0.10;;;;;;;;;;5018626;28;20044;-91
2023/09/03 07:17:04;;;;;;;0.10;0.10;;;;;;;;;;5017552;28;20389;-90
2023/09/03 07:19:30;;;;;;;0.10;0.10;;;;;;;;;;5017553;28;20060;-91
2023/09/03 07:21:56;;;;;;;0.15;0.15;;;;;;;;;;5000558;28;20124;-90
2023/09/03 07:24:22;;;;;;;0.10;0.10;;;;;;;;;;5000801;28;20696;-91
2023/09/03 07:26:48;;;;;;;0.10;0.10;;;;;;;;;;5000593;28;20042;-90
2023/09/03 07:29:14;;;;;;;0.10;0.10;;;;;;;;;;5033717;28;20120;-90
2023/09/03 07:31:41;;;;;;;0.20;0.20;;;;;;;;;;5000725;28;20109;-90
2023/09/03 07:34:25;;;;;;;0.10;0.10;;;;;;;;;;5016806;28;20049;-91
2023/09/03 07:36:51;;;;;;;0.10;0.10;;;;;;;;;;5000775;28;20092;-90
2023/09/03 07:39:18;;;;;;;0.10;0.10;;;;;;;;;;5017802;28;20045;-94
2023/09/03 07:41:46;;;;;;;0.13;0.13;;;;;;;;;;5001796;28;20041;-92
2023/09/03 07:44:12;;;;;;;0.20;0.20;;;;;;;;;;5017533;28;20041;-94
2023/09/03 07:46:44;;;;;;;0.20;0.20;;;;;;;;;;5035000;28;20071;-94
2023/09/03 07:55:48;;;;;;;0.20;0.20;;;;;;;;;;5064071;28;20558;-94
2023/09/03 07:58:14;;;;;;;0.20;0.20;;;;;;;;;;5036693;28;20110;-91
2023/09/03 08:00:40;;;;;;;0.10;0.10;;;;;;;;;;5036532;28;20037;-91
2023/09/03 08:03:07;;;;;;;0.20;0.20;;;;;;;;;;5019692;28;20128;-92
2023/09/03 08:05:33;;;;;;;0.10;0.10;;;;;;;;;;5036352;28;20045;-92
2023/09/03 08:07:59;;;;;;;0.20;0.20;;;;;;;;;;5020074;28;20095;-93
2023/09/03 08:10:26;;;;;;;0.10;0.10;;;;;;;;;;5020480;28;20076;-92
2023/09/03 08:13:15;;;;;;;0.10;0.10;;;;;;;;;;5025235;28;20025;-96
2023/09/03 08:18:28;;;;;;;0.20;0.20;;;;;;;;;;5757573;22;20056;-95
2023/09/03 08:20:55;;;;;;;0.20;0.20;;;;;;;;;;5001370;28;20243;-95
2023/09/03 08:23:23;;;;;;;0.10;0.10;;;;;;;;;;5001447;28;20064;-94
2023/09/03 08:25:51;;;;;;;0.20;0.20;;;;;;;;;;5018260;28;20381;-95
2023/09/03 08:28:17;;;;;;;0.10;0.10;;;;;;;;;;5004023;28;20124;-94
2023/09/03 08:30:43;;;;;;;0.20;0.20;;;;;;;;;;5012827;28;20119;-94
2023/09/03 08:33:09;;;;;;;0.20;0.20;;;;;;;;;;4996141;28;20550;-90
2023/09/03 08:35:36;;;;;;;0.20;0.20;;;;;;;;;;4996228;28;20033;-93
2023/09/03 08:38:05;;;;;;;0.20;0.20;;;;;;;;;;4997621;28;20095;-91
2023/09/03 08:40:32;;;;;;;0.10;0.10;;;;;;;;;;4996696;28;20042;-92
2023/09/03 08:42:58;;;;;;;0.20;0.20;;;;;;;;;;4996204;28;20046;-92
2023/09/03 08:45:25;;;;;;;0.20;0.20;;;;;;;;;;4996837;28;20386;-93
2023/09/03 08:47:51;;;;;;;0.20;0.20;;;;;;;;;;4996445;28;20080;-92
2023/09/03 08:50:17;;;;;;;0.20;0.20;;;;;;;;;;4996131;28;20493;-92
2023/09/03 08:52:43;;;;;;;0.20;0.20;;;;;;;;;;5012626;28;20049;-92
2023/09/03 08:55:13;;;;;;;0.20;0.20;;;;;;;;;;4996163;28;20092;-92
2023/09/03 08:57:39;;;;;;;0.20;0.20;;;;;;;;;;4995948;28;20042;-92
2023/09/03 09:00:05;;;;;;;0.20;0.20;;;;;;;;;;5012562;28;20041;-92
2023/09/03 09:02:31;;;;;;;0.20;0.20;;;;;;;;;;4996048;28;20038;-92
2023/09/03 09:04:57;;;;;;;0.20;0.20;;;;;;;;;;4995115;28;20048;-92
2023/09/03 09:07:25;;;;;;;0.20;0.20;;;;;;;;;;4995868;28;20038;-91
2023/09/03 09:09:51;;;;;;;0.10;0.10;;;;;;;;;;5011860;28;20129;-91
2023/09/03 09:12:28;;;;;;;0.25;0.25;;;;;;;;;;4995866;28;20042;-92
2023/09/03 09:15:04;;;;;;;0.20;0.20;;;;;;;;;;5012138;28;20042;-92
2023/09/03 09:17:59;;;;;;;0.20;0.20;;;;;;;;;;5012421;28;20449;-91
2023/09/03 09:20:25;;;;;;;0.20;0.20;;;;;;;;;;5012166;28;20045;-91
2023/09/03 09:22:51;;;;;;;0.20;0.20;;;;;;;;;;4995530;28;20053;-92
2023/09/03 09:25:21;;;;;;;0.20;0.20;;;;;;;;;;5011773;28;20406;-92
2023/09/03 09:27:47;;;;;;;0.20;0.20;;;;;;;;;;4995755;28;20503;-92
2023/09/03 09:30:14;;;;;;;0.20;0.20;;;;;;;;;;4995612;28;20124;-92
2023/09/03 09:32:40;;;;;;;0.20;0.20;;;;;;;;;;4995650;28;20046;-93
2023/09/03 09:35:07;;;;;;;0.20;0.20;;;;;;;;;;5012076;28;20042;-91
2023/09/03 09:37:39;;;;;;;0.20;0.20;;;;;;;;;;5011630;28;20050;-91
2023/09/03 09:40:06;;;;;;;0.20;0.20;;;;;;;;;;4995209;28;20038;-91
2023/09/03 09:42:32;;;;;;;0.20;0.20;;;;;;;;;;4995208;28;20490;-92
2023/09/03 09:44:59;;;;;;;0.20;0.20;;;;;;;;;;4994813;28;20041;-91
2023/09/03 09:47:25;;;;;;;0.20;0.20;;;;;;;;;;4995255;28;20073;-91
2023/09/03 09:49:51;;;;;;;0.20;0.20;;;;;;;;;;4995429;28;20049;-91
2023/09/03 09:52:17;;;;;;;0.45;0.45;;;;;;;;;;5011546;28;20037;-92
2023/09/03 09:54:45;;;;;;;0.20;0.20;;;;;;;;;;4995116;28;20046;-92
2023/09/03 09:57:11;;;;;;;0.20;0.20;;;;;;;;;;5011687;28;20037;-91
2023/09/03 09:59:39;;;;;;;0.20;0.20;;;;;;;;;;5011245;28;20034;-92
2023/09/03 10:02:12;;;;;;;0.20;0.20;;;;;;;;;;4995436;28;20038;-92
2023/09/03 10:04:45;;;;;;;0.20;0.20;;;;;;;;;;5011513;28;20042;-92
2023/09/03 10:07:11;;;;;;;0.20;0.20;;;;;;;;;;4995044;28;20042;-92
2023/09/03 10:09:40;;;;;;;0.20;0.20;;;;;;;;;;4995293;28;20478;-91
2023/09/03 10:12:07;;;;;;;0.20;0.20;;;;;;;;;;4995074;28;20590;-91
2023/09/03 10:14:33;;;;;;;0.20;0.20;;;;;;;;;;5011056;28;20042;-92
2023/09/03 10:17:00;;;;;;;0.20;0.20;;;;;;;;;;4995056;28;20046;-92
2023/09/03 10:19:42;;;;;;;0.20;0.20;;;;;;;;;;4995070;28;20456;-92
2023/09/03 10:22:10;;;;;;;0.20;0.20;;;;;;;;;;4995541;28;20069;-92
2023/09/03 10:24:36;;;;;;;0.20;0.20;;;;;;;;;;4994700;28;20520;-92
2023/09/03 10:27:03;;;;;;;0.20;0.20;;;;;;;;;;4994994;28;20046;-92
2023/09/03 10:29:29;;;;;;;0.20;0.20;;;;;;;;;;4995124;28;20104;-91
2023/09/03 10:31:55;;;;;;;0.20;0.20;;;;;;;;;;4994645;28;20042;-91
2023/09/03 10:34:21;;;;;;;0.20;0.20;;;;;;;;;;5010959;28;20041;-92
2023/09/03 10:37:22;;;;;;;0.20;0.20;;;;;;;;;;5027640;28;20037;-93
2023/09/03 10:39:48;;;;;;;0.20;0.20;;;;;;;;;;4964053;28;20054;-92
2023/09/03 10:42:23;;;;;;;0.20;0.20;;;;;;;;;;5010873;28;20038;-93
2023/09/03 10:44:59;;;;;;;0.20;0.20;;;;;;;;;;5010480;28;20612;-91
2023/09/03 10:47:26;;;;;;;0.15;0.15;;;;;;;;;;4995010;28;20315;-92
2023/09/03 10:49:52;;;;;;;0.20;0.20;;;;;;;;;;4994901;28;20095;-92
2023/09/03 10:52:28;;;;;;;0.20;0.20;;;;;;;;;;4995341;28;20042;-93
2023/09/03 10:55:20;;;;;;;0.20;0.20;;;;;;;;;;5027490;28;20499;-92
2023/09/03 10:57:47;;;;;;;0.20;0.20;;;;;;;;;;4995519;28;20145;-91
2023/09/03 11:00:15;;;;;;;0.20;0.20;;;;;;;;;;5014839;28;20034;-91
2023/09/03 11:02:42;;;;;;;0.20;0.20;;;;;;;;;;5015032;28;20385;-92
2023/09/03 11:05:11;;;;;;;0.20;0.20;;;;;;;;;;4998100;28;20041;-91
2023/09/03 11:07:37;;;;;;;0.20;0.20;;;;;;;;;;5014301;28;20512;-92
2023/09/03 11:10:21;;;;;;;0.20;0.20;;;;;;;;;;4997975;28;20038;-91
2023/09/03 11:12:50;;;;;;;0.20;0.20;;;;;;;;;;5015670;28;20172;-92
2023/09/03 11:15:16;;;;;;;0.20;0.20;;;;;;;;;;4997916;28;20096;-92
2023/09/03 11:17:42;;;;;;;0.20;0.20;;;;;;;;;;4998010;28;20135;-92
2023/09/03 11:20:10;;;;;;;0.20;0.20;;;;;;;;;;4997302;28;20045;-92
2023/09/03 11:22:37;;;;;;;0.20;0.20;;;;;;;;;;5030165;28;20068;-92
2023/09/03 11:25:03;;;;;;;0.20;0.20;;;;;;;;;;5013928;28;20077;-91
2023/09/03 11:27:30;;;;;;;0.20;0.20;;;;;;;;;;4997916;28;20312;-92
2023/09/03 11:30:08;;;;;;;0.20;0.20;;;;;;;;;;4997365;28;20536;-92
2023/09/03 11:32:40;;;;;;;0.20;0.20;;;;;;;;;;4997513;28;20052;-92
2023/09/03 11:35:06;;;;;;;0.20;0.20;;;;;;;;;;4998104;28;20128;-92
2023/09/03 11:37:32;;;;;;;0.40;0.40;;;;;;;;;;5013875;28;20125;-92
2023/09/03 11:39:58;;;;;;;0.20;0.20;;;;;;;;;;4997522;28;20137;-92
2023/09/03 11:42:24;;;;;;;0.20;0.20;;;;;;;;;;5013791;28;20041;-91
2023/09/03 11:44:50;;;;;;;0.20;0.20;;;;;;;;;;4997279;28;20042;-92
2023/09/03 11:47:16;;;;;;;0.20;0.20;;;;;;;;;;4997273;28;20136;-92
2023/09/03 11:49:47;;;;;;;0.10;0.10;;;;;;;;;;4997467;28;20073;-92
2023/09/03 11:52:13;;;;;;;0.20;0.20;;;;;;;;;;4998042;28;20099;-92
2023/09/03 11:54:39;;;;;;;0.17;0.17;;;;;;;;;;4997123;28;20050;-91
2023/09/03 11:57:05;;;;;;;0.82;0.35;;;;;;;;;;4997347;28;20038;-92
2023/09/03 11:59:31;;;;;;;0.20;0.20;;;;;;;;;;4997241;28;20034;-91
2023/09/03 12:01:57;;;;;;;0.20;0.20;;;;;;;;;;5013287;28;20532;-91
2023/09/03 12:04:23;;;;;;;0.20;0.20;;;;;;;;;;5013063;28;20103;-92
2023/09/03 12:06:49;;;;;;;0.20;0.20;;;;;;;;;;5013175;28;20509;-90
2023/09/03 12:09:15;;;;;;;0.20;0.20;;;;;;;;;;4996676;28;20061;-91
2023/09/03 12:11:42;;;;;;;0.10;0.10;;;;;;;;;;4997092;28;20489;-91
2023/09/03 12:14:11;;;;;;;0.17;0.17;;;;;;;;;;5013021;28;20401;-92
2023/09/03 12:16:48;;;;;;;0.28;0.28;;;;;;;;;;4996905;28;20195;-91
2023/09/03 12:19:14;;;;;;;0.20;0.20;;;;;;;;;;4996758;28;20193;-91
2023/09/03 12:21:40;;;;;;;0.20;0.20;;;;;;;;;;4996575;28;20097;-91
2023/09/03 12:24:06;;;;;;;0.20;0.20;;;;;;;;;;5012937;28;20052;-92
2023/09/03 12:26:36;;;;;;;0.20;0.20;;;;;;;;;;4996608;28;20038;-92
2023/09/03 12:29:03;;;;;;;0.15;0.15;;;;;;;;;;5012877;28;20099;-92
2023/09/03 12:31:40;;;;;;;0.20;0.20;;;;;;;;;;4996527;28;20048;-91
2023/09/03 12:34:06;;;;;;;0.20;0.20;;;;;;;;;;5012868;28;20049;-93
2023/09/03 12:36:32;;;;;;;0.20;0.20;;;;;;;;;;4996432;28;20041;-91
2023/09/03 12:38:58;;;;;;;0.20;0.20;;;;;;;;;;4996352;28;20073;-91
2023/09/03 12:41:34;;;;;;;0.43;0.43;;;;;;;;;;5013886;28;20038;-91
2023/09/03 12:44:07;;;;;;;0.20;0.20;;;;;;;;;;4996520;28;20046;-91
2023/09/03 12:46:34;;;;;;;0.20;0.20;;;;;;;;;;5012241;28;20042;-92
2023/09/03 12:49:01;;;;;;;0.20;0.20;;;;;;;;;;4996026;28;20515;-91
2023/09/03 12:51:27;;;;;;;0.10;0.10;;;;;;;;;;5012342;28;20053;-91
2023/09/03 12:53:53;;;;;;;0.20;0.20;;;;;;;;;;5012309;28;20049;-91
2023/09/03 12:56:19;;;;;;;0.20;0.20;;;;;;;;;;5012748;28;20096;-92
2023/09/03 12:58:47;;;;;;;0.20;0.20;;;;;;;;;;5012410;28;20394;-92
2023/09/03 13:01:13;;;;;;;0.20;0.20;;;;;;;;;;5012307;28;20042;-91
2023/09/03 13:03:39;;;;;;;0.20;0.20;;;;;;;;;;4996086;28;20093;-92
2023/09/03 13:06:05;;;;;;;0.13;0.13;;;;;;;;;;5012267;28;20491;-91
2023/09/03 13:08:32;;;;;;;0.10;0.10;;;;;;;;;;4995701;28;20073;-93
2023/09/03 13:10:59;;;;;;;0.20;0.20;;;;;;;;;;5012259;28;20050;-92
2023/09/03 13:13:25;;;;;;;0.20;0.20;;;;;;;;;;4995805;28;20044;-92
2023/09/03 13:15:51;;;;;;;0.20;0.20;;;;;;;;;;4996201;28;20038;-92
2023/09/03 13:18:18;;;;;;;0.20;0.20;;;;;;;;;;4995149;28;20054;-92
2023/09/03 13:20:44;;;;;;;0.20;0.20;;;;;;;;;;4995646;28;20038;-92
2023/09/03 13:23:11;;;;;;;0.10;0.10;;;;;;;;;;4995418;28;20044;-91
2023/09/03 13:25:38;;;;;;;0.10;0.10;;;;;;;;;;4995533;28;20120;-92
2023/09/03 13:28:04;;;;;;;0.15;0.15;;;;;;;;;;5011993;28;20445;-92
2023/09/03 13:30:30;;;;;;;0.20;0.20;;;;;;;;;;5011899;28;20048;-92
2023/09/03 13:32:57;;;;;;;0.20;0.20;;;;;;;;;;5011708;28;20045;-92
2023/09/03 13:35:25;;;;;;;0.20;0.20;;;;;;;;;;5011576;28;20481;-91
2023/09/03 13:37:51;;;;;;;0.20;0.20;;;;;;;;;;4995450;28;20463;-92
2023/09/03 13:40:17;;;;;;;0.20;0.20;;;;;;;;;;5012020;28;20065;-92
2023/09/03 13:42:43;;;;;;;0.10;0.10;;;;;;;;;;5011877;28;20042;-92
2023/09/03 13:45:09;;;;;;;0.20;0.20;;;;;;;;;;4995185;28;20075;-92
2023/09/03 13:47:35;;;;;;;0.20;0.20;;;;;;;;;;5011576;28;20073;-92
2023/09/03 13:50:02;;;;;;;0.32;0.30;;;;;;;;;;4995329;28;20045;-91
2023/09/03 13:52:28;;;;;;;0.20;0.20;;;;;;;;;;4995648;28;20041;-92
2023/09/03 13:54:54;;;;;;;0.10;0.10;;;;;;;;;;4995554;28;20132;-92
2023/09/03 13:57:20;;;;;;;0.20;0.20;;;;;;;;;;4995444;28;20077;-92
2023/09/03 13:59:47;;;;;;;0.20;0.20;;;;;;;;;;4995240;28;20518;-92
2023/09/03 14:02:13;;;;;;;0.10;0.10;;;;;;;;;;5011567;28;20044;-91
2023/09/03 14:04:39;;;;;;;0.20;0.20;;;;;;;;;;4995541;28;20126;-92
2023/09/03 14:07:05;;;;;;;0.20;0.20;;;;;;;;;;5011326;28;20124;-92
2023/09/03 14:09:31;;;;;;;0.17;0.17;;;;;;;;;;4995277;28;20046;-92
2023/09/03 14:11:57;;;;;;;0.20;0.20;;;;;;;;;;5012061;28;20485;-91
2023/09/03 14:14:23;;;;;;;0.10;0.10;;;;;;;;;;4995444;28;20046;-92
2023/09/03 14:16:49;;;;;;;0.20;0.20;;;;;;;;;;4995898;28;20037;-92
2023/09/03 14:19:15;;;;;;;0.20;0.20;;;;;;;;;;4995063;28;20057;-92
2023/09/03 14:21:41;;;;;;;0.20;0.20;;;;;;;;;;4995596;28;20053;-91
2023/09/03 14:24:07;;;;;;;0.20;0.20;;;;;;;;;;4995421;28;20401;-93
2023/09/03 14:26:33;;;;;;;0.10;0.10;;;;;;;;;;4995379;28;20053;-91
2023/09/03 14:29:09;;;;;;;0.10;0.10;;;;;;;;;;4995270;28;20042;-91
2023/09/03 14:31:34;;;;;;;0.20;0.20;;;;;;;;;;4999536;28;20512;-92
2023/09/03 14:34:00;;;;;;;0.20;0.20;;;;;;;;;;4999234;28;20038;-92
2023/09/03 14:36:26;;;;;;;0.20;0.20;;;;;;;;;;4999711;28;20096;-92
2023/09/03 14:38:52;;;;;;;0.17;0.17;;;;;;;;;;4999218;28;20044;-91
2023/09/03 14:41:18;;;;;;;0.10;0.10;;;;;;;;;;5015488;28;20038;-92
2023/09/03 14:43:44;;;;;;;0.20;0.20;;;;;;;;;;4998773;28;20116;-91
2023/09/03 14:46:10;;;;;;;0.10;0.10;;;;;;;;;;4998595;28;20112;-91
2023/09/03 14:48:36;;;;;;;0.20;0.20;;;;;;;;;;4998518;28;20054;-93
2023/09/03 14:51:03;;;;;;;0.17;0.17;;;;;;;;;;5014638;28;20400;-92
2023/09/03 14:53:29;;;;;;;0.10;0.10;;;;;;;;;;5014663;28;20560;-91
2023/09/03 14:55:55;;;;;;;0.10;0.10;;;;;;;;;;5015116;28;20088;-92
2023/09/03 14:58:23;;;;;;;0.13;0.13;;;;;;;;;;4998786;28;20038;-92
2023/09/03 15:00:49;;;;;;;0.10;0.10;;;;;;;;;;4998972;28;20058;-92
2023/09/03 15:03:15;;;;;;;0.10;0.10;;;;;;;;;;4998794;28;20049;-93
2023/09/03 15:05:41;;;;;;;0.20;0.20;;;;;;;;;;4998345;28;20050;-92
2023/09/03 15:08:07;;;;;;;0.10;0.10;;;;;;;;;;4998373;28;20057;-92
2023/09/03 15:10:33;;;;;;;0.10;0.10;;;;;;;;;;4998480;28;20046;-92
2023/09/03 15:12:59;;;;;;;0.10;0.10;;;;;;;;;;5014709;28;20528;-92